Socastee, South Carolina
Current Conditions -  °F | °C
As of 8:45 PM on Wednesday 22 Oct 2014 (Local Time) from KMYR Reporting Station
Clear Clear  
Wind Chill: 57°   Ceiling: Unl
Heat Index: 57°   Visibility: 10mi
Dew Point: 45°   Wind: 8mph
Humidity: 63%   Direction: 280°W
Pressure: 30.02"   Gusts: NA
Location:  33.68°N, 79°W
Report Text: KMYR 230045Z 28007KT 10SM CLR 14/07 A3002
Loading
Personal Weather Stations






























Interactive Weather Map
Tropical Storm Tracking
New forecast layout! Learn more

10-Day Weather Forecast

Advertisements
Track Severe Weather on mobile